sensor_id;sensor_type;location;lat;lon;timestamp;P1;durP1;ratioP1;P2;durP2;ratioP2
25023;SDS011;13033;50.936;5.334;2022-07-25T00:00:16;9.73;;;6.10;;
25023;SDS011;13033;50.936;5.334;2022-07-25T00:02:42;7.10;;;5.80;;
25023;SDS011;13033;50.936;5.334;2022-07-25T00:05:08;7.05;;;5.53;;
25023;SDS011;13033;50.936;5.334;2022-07-25T00:07:33;7.50;;;5.65;;
25023;SDS011;13033;50.936;5.334;2022-07-25T00:09:59;6.18;;;5.07;;
25023;SDS011;13033;50.936;5.334;2022-07-25T00:12:25;8.00;;;6.10;;
25023;SDS011;13033;50.936;5.334;2022-07-25T00:14:50;13.85;;;5.90;;
25023;SDS011;13033;50.936;5.334;2022-07-25T00:17:16;11.15;;;5.90;;
25023;SDS011;13033;50.936;5.334;2022-07-25T00:19:42;11.98;;;5.85;;
25023;SDS011;13033;50.936;5.334;2022-07-25T00:22:08;12.02;;;5.72;;
25023;SDS011;13033;50.936;5.334;2022-07-25T00:24:33;8.57;;;5.63;;
25023;SDS011;13033;50.936;5.334;2022-07-25T00:26:59;7.60;;;5.28;;
25023;SDS011;13033;50.936;5.334;2022-07-25T00:29:25;8.88;;;6.00;;
25023;SDS011;13033;50.936;5.334;2022-07-25T00:31:50;10.38;;;6.25;;
25023;SDS011;13033;50.936;5.334;2022-07-25T00:34:16;7.90;;;5.20;;
25023;SDS011;13033;50.936;5.334;2022-07-25T00:36:42;7.60;;;5.80;;
25023;SDS011;13033;50.936;5.334;2022-07-25T00:39:08;9.35;;;5.45;;
25023;SDS011;13033;50.936;5.334;2022-07-25T00:41:34;9.10;;;5.70;;
25023;SDS011;13033;50.936;5.334;2022-07-25T00:43:59;9.25;;;5.18;;
25023;SDS011;13033;50.936;5.334;2022-07-25T00:46:25;8.68;;;6.22;;
25023;SDS011;13033;50.936;5.334;2022-07-25T00:48:50;10.90;;;5.82;;
25023;SDS011;13033;50.936;5.334;2022-07-25T00:51:16;10.63;;;5.70;;
25023;SDS011;13033;50.936;5.334;2022-07-25T00:53:42;7.72;;;5.45;;
25023;SDS011;13033;50.936;5.334;2022-07-25T00:56:09;12.40;;;6.32;;
25023;SDS011;13033;50.936;5.334;2022-07-25T00:58:35;8.45;;;5.55;;
25023;SDS011;13033;50.936;5.334;2022-07-25T01:01:00;8.60;;;6.00;;
25023;SDS011;13033;50.936;5.334;2022-07-25T01:03:27;6.80;;;5.43;;
25023;SDS011;13033;50.936;5.334;2022-07-25T01:05:52;7.90;;;5.78;;
25023;SDS011;13033;50.936;5.334;2022-07-25T01:08:19;9.38;;;6.07;;
25023;SDS011;13033;50.936;5.334;2022-07-25T01:10:47;11.18;;;5.68;;
25023;SDS011;13033;50.936;5.334;2022-07-25T01:13:13;13.93;;;5.97;;
25023;SDS011;13033;50.936;5.334;2022-07-25T01:15:39;10.00;;;5.70;;
25023;SDS011;13033;50.936;5.334;2022-07-25T01:18:06;8.30;;;6.43;;
25023;SDS011;13033;50.936;5.334;2022-07-25T01:20:32;8.77;;;6.32;;
25023;SDS011;13033;50.936;5.334;2022-07-25T01:22:58;9.05;;;6.05;;
25023;SDS011;13033;50.936;5.334;2022-07-25T01:25:25;9.57;;;6.47;;
25023;SDS011;13033;50.936;5.334;2022-07-25T01:27:52;8.98;;;5.85;;
25023;SDS011;13033;50.936;5.334;2022-07-25T01:30:19;9.95;;;5.68;;
25023;SDS011;13033;50.936;5.334;2022-07-25T01:32:45;11.27;;;6.15;;
25023;SDS011;13033;50.936;5.334;2022-07-25T01:35:12;10.88;;;6.07;;
25023;SDS011;13033;50.936;5.334;2022-07-25T01:37:38;10.35;;;5.68;;
25023;SDS011;13033;50.936;5.334;2022-07-25T01:40:05;11.00;;;5.78;;
25023;SDS011;13033;50.936;5.334;2022-07-25T01:42:31;11.88;;;5.80;;
25023;SDS011;13033;50.936;5.334;2022-07-25T01:44:57;9.18;;;5.70;;
25023;SDS011;13033;50.936;5.334;2022-07-25T01:47:23;10.38;;;5.68;;
25023;SDS011;13033;50.936;5.334;2022-07-25T01:49:49;11.00;;;6.00;;
25023;SDS011;13033;50.936;5.334;2022-07-25T01:52:15;9.85;;;5.72;;
25023;SDS011;13033;50.936;5.334;2022-07-25T01:54:41;8.55;;;5.65;;
25023;SDS011;13033;50.936;5.334;2022-07-25T01:57:06;9.27;;;6.10;;
25023;SDS011;13033;50.936;5.334;2022-07-25T01:59:35;9.18;;;5.80;;
25023;SDS011;13033;50.936;5.334;2022-07-25T02:02:02;6.80;;;4.90;;
25023;SDS011;13033;50.936;5.334;2022-07-25T02:04:29;7.70;;;6.28;;
25023;SDS011;13033;50.936;5.334;2022-07-25T02:06:55;8.25;;;5.18;;
25023;SDS011;13033;50.936;5.334;2022-07-25T02:09:20;12.23;;;6.03;;
25023;SDS011;13033;50.936;5.334;2022-07-25T02:11:46;8.07;;;5.40;;
25023;SDS011;13033;50.936;5.334;2022-07-25T02:14:11;6.55;;;5.50;;
25023;SDS011;13033;50.936;5.334;2022-07-25T02:16:37;6.35;;;5.45;;
25023;SDS011;13033;50.936;5.334;2022-07-25T02:19:03;7.35;;;5.18;;
25023;SDS011;13033;50.936;5.334;2022-07-25T02:21:28;10.05;;;5.70;;
25023;SDS011;13033;50.936;5.334;2022-07-25T02:23:54;8.80;;;5.75;;
25023;SDS011;13033;50.936;5.334;2022-07-25T02:26:20;7.72;;;5.93;;
25023;SDS011;13033;50.936;5.334;2022-07-25T02:28:45;10.85;;;5.38;;
25023;SDS011;13033;50.936;5.334;2022-07-25T02:31:11;8.10;;;5.97;;
25023;SDS011;13033;50.936;5.334;2022-07-25T02:33:37;9.13;;;5.38;;
25023;SDS011;13033;50.936;5.334;2022-07-25T02:36:02;11.15;;;5.90;;
25023;SDS011;13033;50.936;5.334;2022-07-25T02:38:28;7.97;;;5.65;;
25023;SDS011;13033;50.936;5.334;2022-07-25T02:40:54;7.28;;;5.75;;
25023;SDS011;13033;50.936;5.334;2022-07-25T02:43:20;8.55;;;5.65;;
25023;SDS011;13033;50.936;5.334;2022-07-25T02:45:46;10.65;;;5.50;;
25023;SDS011;13033;50.936;5.334;2022-07-25T02:48:11;8.38;;;5.32;;
25023;SDS011;13033;50.936;5.334;2022-07-25T02:50:37;6.43;;;5.80;;
25023;SDS011;13033;50.936;5.334;2022-07-25T02:53:03;9.45;;;6.22;;
25023;SDS011;13033;50.936;5.334;2022-07-25T02:55:30;8.25;;;5.72;;
25023;SDS011;13033;50.936;5.334;2022-07-25T02:57:56;7.75;;;5.28;;
25023;SDS011;13033;50.936;5.334;2022-07-25T03:00:22;9.55;;;6.03;;
25023;SDS011;13033;50.936;5.334;2022-07-25T03:02:48;9.35;;;6.20;;
25023;SDS011;13033;50.936;5.334;2022-07-25T03:05:14;8.68;;;5.63;;
25023;SDS011;13033;50.936;5.334;2022-07-25T03:07:41;10.73;;;6.10;;
25023;SDS011;13033;50.936;5.334;2022-07-25T03:10:08;8.70;;;5.97;;
25023;SDS011;13033;50.936;5.334;2022-07-25T03:12:35;8.70;;;5.80;;
25023;SDS011;13033;50.936;5.334;2022-07-25T03:15:02;6.80;;;6.10;;
25023;SDS011;13033;50.936;5.334;2022-07-25T03:17:28;9.38;;;5.78;;
25023;SDS011;13033;50.936;5.334;2022-07-25T03:19:54;8.10;;;5.78;;
25023;SDS011;13033;50.936;5.334;2022-07-25T03:22:20;10.45;;;6.28;;
25023;SDS011;13033;50.936;5.334;2022-07-25T03:24:46;9.05;;;6.25;;
25023;SDS011;13033;50.936;5.334;2022-07-25T03:27:12;9.23;;;6.00;;
25023;SDS011;13033;50.936;5.334;2022-07-25T03:29:38;9.95;;;5.85;;
25023;SDS011;13033;50.936;5.334;2022-07-25T03:32:03;7.00;;;6.10;;
25023;SDS011;13033;50.936;5.334;2022-07-25T03:34:29;9.43;;;5.60;;
25023;SDS011;13033;50.936;5.334;2022-07-25T03:36:55;10.70;;;6.18;;
25023;SDS011;13033;50.936;5.334;2022-07-25T03:39:21;9.38;;;5.70;;
25023;SDS011;13033;50.936;5.334;2022-07-25T03:41:48;9.95;;;6.38;;
25023;SDS011;13033;50.936;5.334;2022-07-25T03:44:15;8.73;;;5.40;;
25023;SDS011;13033;50.936;5.334;2022-07-25T03:46:40;8.32;;;6.43;;
25023;SDS011;13033;50.936;5.334;2022-07-25T03:49:06;9.63;;;6.25;;
25023;SDS011;13033;50.936;5.334;2022-07-25T03:51:32;7.45;;;6.43;;
25023;SDS011;13033;50.936;5.334;2022-07-25T03:53:57;7.75;;;6.00;;
25023;SDS011;13033;50.936;5.334;2022-07-25T03:56:25;10.55;;;5.97;;
25023;SDS011;13033;50.936;5.334;2022-07-25T03:58:52;8.88;;;6.53;;
25023;SDS011;13033;50.936;5.334;2022-07-25T04:01:17;11.07;;;6.63;;
25023;SDS011;13033;50.936;5.334;2022-07-25T04:03:43;10.05;;;6.28;;
25023;SDS011;13033;50.936;5.334;2022-07-25T04:06:09;9.63;;;6.10;;
25023;SDS011;13033;50.936;5.334;2022-07-25T04:08:34;10.25;;;6.00;;
25023;SDS011;13033;50.936;5.334;2022-07-25T04:11:00;10.30;;;6.43;;
25023;SDS011;13033;50.936;5.334;2022-07-25T04:13:25;8.57;;;6.40;;
25023;SDS011;13033;50.936;5.334;2022-07-25T04:15:51;10.93;;;6.63;;
25023;SDS011;13033;50.936;5.334;2022-07-25T04:18:17;11.43;;;6.63;;
25023;SDS011;13033;50.936;5.334;2022-07-25T04:20:42;10.98;;;6.80;;
25023;SDS011;13033;50.936;5.334;2022-07-25T04:23:08;9.27;;;6.40;;
25023;SDS011;13033;50.936;5.334;2022-07-25T04:25:34;12.02;;;6.80;;
25023;SDS011;13033;50.936;5.334;2022-07-25T04:27:59;11.18;;;6.95;;
25023;SDS011;13033;50.936;5.334;2022-07-25T04:30:25;8.43;;;5.90;;
25023;SDS011;13033;50.936;5.334;2022-07-25T04:32:51;8.57;;;5.95;;
25023;SDS011;13033;50.936;5.334;2022-07-25T04:35:16;8.77;;;6.00;;
25023;SDS011;13033;50.936;5.334;2022-07-25T04:37:42;10.63;;;6.68;;
25023;SDS011;13033;50.936;5.334;2022-07-25T04:40:08;10.80;;;6.45;;
25023;SDS011;13033;50.936;5.334;2022-07-25T04:42:35;10.60;;;6.05;;
25023;SDS011;13033;50.936;5.334;2022-07-25T04:45:00;7.25;;;6.30;;
25023;SDS011;13033;50.936;5.334;2022-07-25T04:47:26;9.15;;;6.32;;
25023;SDS011;13033;50.936;5.334;2022-07-25T04:49:53;6.72;;;5.72;;
25023;SDS011;13033;50.936;5.334;2022-07-25T04:52:19;9.52;;;6.55;;
25023;SDS011;13033;50.936;5.334;2022-07-25T04:54:45;7.88;;;6.10;;
25023;SDS011;13033;50.936;5.334;2022-07-25T04:57:10;12.02;;;6.55;;
25023;SDS011;13033;50.936;5.334;2022-07-25T04:59:36;7.70;;;6.60;;
25023;SDS011;13033;50.936;5.334;2022-07-25T05:02:02;9.80;;;6.47;;
25023;SDS011;13033;50.936;5.334;2022-07-25T05:04:27;9.27;;;6.40;;
25023;SDS011;13033;50.936;5.334;2022-07-25T05:06:53;7.20;;;6.03;;
25023;SDS011;13033;50.936;5.334;2022-07-25T05:09:19;9.10;;;6.40;;
25023;SDS011;13033;50.936;5.334;2022-07-25T05:11:44;7.65;;;6.03;;
25023;SDS011;13033;50.936;5.334;2022-07-25T05:14:10;7.93;;;6.07;;
25023;SDS011;13033;50.936;5.334;2022-07-25T05:16:35;9.15;;;5.97;;
25023;SDS011;13033;50.936;5.334;2022-07-25T05:19:01;6.70;;;5.93;;
25023;SDS011;13033;50.936;5.334;2022-07-25T05:21:27;6.80;;;5.80;;
25023;SDS011;13033;50.936;5.334;2022-07-25T05:23:52;6.43;;;5.38;;
25023;SDS011;13033;50.936;5.334;2022-07-25T05:26:18;6.90;;;5.70;;
25023;SDS011;13033;50.936;5.334;2022-07-25T05:28:44;7.93;;;5.50;;
25023;SDS011;13033;50.936;5.334;2022-07-25T05:31:09;8.43;;;6.05;;
25023;SDS011;13033;50.936;5.334;2022-07-25T05:33:35;7.00;;;5.45;;
25023;SDS011;13033;50.936;5.334;2022-07-25T05:36:01;9.77;;;5.97;;
25023;SDS011;13033;50.936;5.334;2022-07-25T05:38:28;10.95;;;5.65;;
25023;SDS011;13033;50.936;5.334;2022-07-25T05:40:54;6.72;;;5.43;;
25023;SDS011;13033;50.936;5.334;2022-07-25T05:43:19;6.88;;;5.68;;
25023;SDS011;13033;50.936;5.334;2022-07-25T05:45:45;8.98;;;5.80;;
25023;SDS011;13033;50.936;5.334;2022-07-25T05:48:14;7.75;;;5.90;;
25023;SDS011;13033;50.936;5.334;2022-07-25T05:50:39;8.95;;;5.95;;
25023;SDS011;13033;50.936;5.334;2022-07-25T05:53:05;10.32;;;5.88;;
25023;SDS011;13033;50.936;5.334;2022-07-25T05:55:31;9.02;;;5.90;;
25023;SDS011;13033;50.936;5.334;2022-07-25T05:57:57;8.00;;;6.38;;
25023;SDS011;13033;50.936;5.334;2022-07-25T06:00:23;10.20;;;5.95;;
25023;SDS011;13033;50.936;5.334;2022-07-25T06:02:49;7.10;;;5.97;;
25023;SDS011;13033;50.936;5.334;2022-07-25T06:05:15;12.18;;;6.47;;
25023;SDS011;13033;50.936;5.334;2022-07-25T06:07:40;8.00;;;6.32;;
25023;SDS011;13033;50.936;5.334;2022-07-25T06:10:06;13.13;;;6.13;;
25023;SDS011;13033;50.936;5.334;2022-07-25T06:12:32;9.82;;;6.35;;
25023;SDS011;13033;50.936;5.334;2022-07-25T06:14:58;9.88;;;6.45;;
25023;SDS011;13033;50.936;5.334;2022-07-25T06:17:24;7.07;;;6.38;;
25023;SDS011;13033;50.936;5.334;2022-07-25T06:19:50;9.02;;;6.05;;
25023;SDS011;13033;50.936;5.334;2022-07-25T06:22:16;8.23;;;5.97;;
25023;SDS011;13033;50.936;5.334;2022-07-25T06:24:43;8.05;;;5.88;;
25023;SDS011;13033;50.936;5.334;2022-07-25T06:27:09;9.02;;;6.18;;
25023;SDS011;13033;50.936;5.334;2022-07-25T06:29:36;7.65;;;5.75;;
25023;SDS011;13033;50.936;5.334;2022-07-25T06:32:02;9.55;;;6.20;;
25023;SDS011;13033;50.936;5.334;2022-07-25T06:34:28;7.20;;;6.03;;
25023;SDS011;13033;50.936;5.334;2022-07-25T06:36:54;9.65;;;6.57;;
25023;SDS011;13033;50.936;5.334;2022-07-25T06:39:21;8.05;;;6.00;;
25023;SDS011;13033;50.936;5.334;2022-07-25T06:41:47;13.73;;;5.90;;
25023;SDS011;13033;50.936;5.334;2022-07-25T06:44:12;6.68;;;5.97;;
25023;SDS011;13033;50.936;5.334;2022-07-25T06:46:38;10.82;;;5.63;;
25023;SDS011;13033;50.936;5.334;2022-07-25T06:49:04;6.80;;;5.45;;
25023;SDS011;13033;50.936;5.334;2022-07-25T06:51:30;6.45;;;5.30;;
25023;SDS011;13033;50.936;5.334;2022-07-25T06:53:55;8.40;;;5.50;;
25023;SDS011;13033;50.936;5.334;2022-07-25T06:56:21;8.20;;;4.72;;
25023;SDS011;13033;50.936;5.334;2022-07-25T06:58:47;7.40;;;5.03;;
25023;SDS011;13033;50.936;5.334;2022-07-25T07:01:12;6.03;;;4.35;;
25023;SDS011;13033;50.936;5.334;2022-07-25T07:03:38;7.20;;;4.20;;
25023;SDS011;13033;50.936;5.334;2022-07-25T07:06:05;9.45;;;4.30;;
25023;SDS011;13033;50.936;5.334;2022-07-25T07:08:31;6.95;;;3.85;;
25023;SDS011;13033;50.936;5.334;2022-07-25T07:10:57;9.93;;;3.97;;
25023;SDS011;13033;50.936;5.334;2022-07-25T07:13:23;7.18;;;4.03;;
25023;SDS011;13033;50.936;5.334;2022-07-25T07:15:50;9.35;;;4.30;;
25023;SDS011;13033;50.936;5.334;2022-07-25T07:18:16;7.95;;;4.05;;
25023;SDS011;13033;50.936;5.334;2022-07-25T07:20:43;7.45;;;4.28;;
25023;SDS011;13033;50.936;5.334;2022-07-25T07:23:09;9.90;;;4.00;;
25023;SDS011;13033;50.936;5.334;2022-07-25T07:25:35;7.10;;;4.22;;
25023;SDS011;13033;50.936;5.334;2022-07-25T07:28:01;6.50;;;4.22;;
25023;SDS011;13033;50.936;5.334;2022-07-25T07:30:27;9.60;;;4.10;;
25023;SDS011;13033;50.936;5.334;2022-07-25T07:32:52;7.03;;;4.25;;
25023;SDS011;13033;50.936;5.334;2022-07-25T07:35:18;4.82;;;3.53;;
25023;SDS011;13033;50.936;5.334;2022-07-25T07:37:44;8.38;;;3.63;;
25023;SDS011;13033;50.936;5.334;2022-07-25T07:40:13;13.52;;;4.28;;
25023;SDS011;13033;50.936;5.334;2022-07-25T07:42:41;11.23;;;3.70;;
25023;SDS011;13033;50.936;5.334;2022-07-25T07:47:41;7.28;;;3.58;;
25023;SDS011;13033;50.936;5.334;2022-07-25T07:50:07;12.30;;;3.60;;
25023;SDS011;13033;50.936;5.334;2022-07-25T07:52:34;9.10;;;3.80;;
25023;SDS011;13033;50.936;5.334;2022-07-25T07:55:00;6.07;;;3.33;;
25023;SDS011;13033;50.936;5.334;2022-07-25T07:57:45;7.10;;;3.67;;
25023;SDS011;13033;50.936;5.334;2022-07-25T08:00:11;9.13;;;3.40;;
25023;SDS011;13033;50.936;5.334;2022-07-25T08:02:45;5.32;;;3.22;;
25023;SDS011;13033;50.936;5.334;2022-07-25T08:05:12;7.10;;;3.20;;
25023;SDS011;13033;50.936;5.334;2022-07-25T08:07:48;9.60;;;3.30;;
25023;SDS011;13033;50.936;5.334;2022-07-25T08:10:17;7.85;;;3.08;;
25023;SDS011;13033;50.936;5.334;2022-07-25T08:12:47;10.75;;;4.07;;
25023;SDS011;13033;50.936;5.334;2022-07-25T08:15:13;9.48;;;3.05;;
25023;SDS011;13033;50.936;5.334;2022-07-25T08:17:39;9.60;;;3.00;;
25023;SDS011;13033;50.936;5.334;2022-07-25T08:20:04;8.23;;;2.90;;
25023;SDS011;13033;50.936;5.334;2022-07-25T08:22:36;8.48;;;2.97;;
25023;SDS011;13033;50.936;5.334;2022-07-25T08:25:03;7.18;;;3.28;;
25023;SDS011;13033;50.936;5.334;2022-07-25T08:27:29;10.75;;;3.53;;
25023;SDS011;13033;50.936;5.334;2022-07-25T08:29:55;7.85;;;3.00;;
25023;SDS011;13033;50.936;5.334;2022-07-25T08:32:22;6.60;;;2.70;;
25023;SDS011;13033;50.936;5.334;2022-07-25T08:34:48;6.75;;;2.67;;
25023;SDS011;13033;50.936;5.334;2022-07-25T08:37:13;6.63;;;2.58;;
25023;SDS011;13033;50.936;5.334;2022-07-25T08:39:39;8.43;;;2.80;;
25023;SDS011;13033;50.936;5.334;2022-07-25T08:42:06;4.22;;;2.60;;
25023;SDS011;13033;50.936;5.334;2022-07-25T08:44:32;4.75;;;2.42;;
25023;SDS011;13033;50.936;5.334;2022-07-25T08:47:04;5.03;;;2.58;;
25023;SDS011;13033;50.936;5.334;2022-07-25T08:49:31;9.07;;;2.55;;
25023;SDS011;13033;50.936;5.334;2022-07-25T08:51:57;7.22;;;2.40;;
25023;SDS011;13033;50.936;5.334;2022-07-25T08:54:23;6.47;;;2.35;;
25023;SDS011;13033;50.936;5.334;2022-07-25T08:56:49;2.65;;;1.67;;
25023;SDS011;13033;50.936;5.334;2022-07-25T08:59:14;4.40;;;1.92;;
25023;SDS011;13033;50.936;5.334;2022-07-25T09:01:40;3.80;;;2.10;;
25023;SDS011;13033;50.936;5.334;2022-07-25T09:04:06;4.93;;;2.22;;
25023;SDS011;13033;50.936;5.334;2022-07-25T09:06:33;7.80;;;2.35;;
25023;SDS011;13033;50.936;5.334;2022-07-25T09:08:59;5.00;;;2.35;;
25023;SDS011;13033;50.936;5.334;2022-07-25T09:11:32;5.93;;;1.92;;
25023;SDS011;13033;50.936;5.334;2022-07-25T09:16:32;5.82;;;2.22;;
25023;SDS011;13033;50.936;5.334;2022-07-25T09:21:35;10.38;;;2.55;;
25023;SDS011;13033;50.936;5.334;2022-07-25T09:24:13;3.95;;;2.00;;
25023;SDS011;13033;50.936;5.334;2022-07-25T09:26:45;5.97;;;1.95;;
25023;SDS011;13033;50.936;5.334;2022-07-25T09:29:17;4.45;;;2.00;;
25023;SDS011;13033;50.936;5.334;2022-07-25T09:31:44;9.50;;;2.25;;
25023;SDS011;13033;50.936;5.334;2022-07-25T09:34:10;5.20;;;2.00;;
25023;SDS011;13033;50.936;5.334;2022-07-25T09:36:37;3.63;;;2.00;;
25023;SDS011;13033;50.936;5.334;2022-07-25T09:39:14;4.13;;;1.73;;
25023;SDS011;13033;50.936;5.334;2022-07-25T09:41:40;4.07;;;1.67;;
25023;SDS011;13033;50.936;5.334;2022-07-25T09:44:18;7.57;;;1.75;;
25023;SDS011;13033;50.936;5.334;2022-07-25T09:46:46;3.13;;;1.77;;
25023;SDS011;13033;50.936;5.334;2022-07-25T09:49:12;4.95;;;1.70;;
25023;SDS011;13033;50.936;5.334;2022-07-25T09:51:38;5.13;;;1.50;;
25023;SDS011;13033;50.936;5.334;2022-07-25T09:54:05;5.00;;;1.88;;
25023;SDS011;13033;50.936;5.334;2022-07-25T09:56:31;4.10;;;1.65;;
25023;SDS011;13033;50.936;5.334;2022-07-25T09:58:59;9.68;;;1.98;;
25023;SDS011;13033;50.936;5.334;2022-07-25T10:01:26;5.30;;;1.58;;
25023;SDS011;13033;50.936;5.334;2022-07-25T10:07:02;6.20;;;1.67;;
25023;SDS011;13033;50.936;5.334;2022-07-25T10:09:39;4.05;;;1.90;;
25023;SDS011;13033;50.936;5.334;2022-07-25T10:12:10;3.90;;;1.67;;
25023;SDS011;13033;50.936;5.334;2022-07-25T10:14:37;3.58;;;1.83;;
25023;SDS011;13033;50.936;5.334;2022-07-25T10:17:04;6.53;;;1.90;;
25023;SDS011;13033;50.936;5.334;2022-07-25T10:19:46;5.18;;;1.67;;
25023;SDS011;13033;50.936;5.334;2022-07-25T10:22:12;5.72;;;1.67;;
25023;SDS011;13033;50.936;5.334;2022-07-25T10:24:41;3.13;;;1.85;;
25023;SDS011;13033;50.936;5.334;2022-07-25T10:27:09;5.55;;;1.80;;
25023;SDS011;13033;50.936;5.334;2022-07-25T10:29:37;3.63;;;1.90;;
25023;SDS011;13033;50.936;5.334;2022-07-25T10:32:07;6.90;;;2.17;;
25023;SDS011;13033;50.936;5.334;2022-07-25T10:34:37;4.63;;;1.90;;
25023;SDS011;13033;50.936;5.334;2022-07-25T10:39:40;6.25;;;2.10;;
25023;SDS011;13033;50.936;5.334;2022-07-25T10:42:11;6.63;;;1.83;;
25023;SDS011;13033;50.936;5.334;2022-07-25T10:44:48;5.28;;;2.20;;
25023;SDS011;13033;50.936;5.334;2022-07-25T10:47:15;5.20;;;1.80;;
25023;SDS011;13033;50.936;5.334;2022-07-25T10:49:42;3.83;;;2.20;;
25023;SDS011;13033;50.936;5.334;2022-07-25T10:52:14;2.23;;;1.63;;
25023;SDS011;13033;50.936;5.334;2022-07-25T10:54:50;6.53;;;1.90;;
25023;SDS011;13033;50.936;5.334;2022-07-25T10:57:18;5.28;;;1.83;;
25023;SDS011;13033;50.936;5.334;2022-07-25T10:59:44;6.10;;;1.90;;
25023;SDS011;13033;50.936;5.334;2022-07-25T11:02:11;4.38;;;1.90;;
25023;SDS011;13033;50.936;5.334;2022-07-25T11:04:44;4.20;;;1.90;;
25023;SDS011;13033;50.936;5.334;2022-07-25T11:07:21;2.92;;;1.77;;
25023;SDS011;13033;50.936;5.334;2022-07-25T11:09:54;9.98;;;2.00;;
25023;SDS011;13033;50.936;5.334;2022-07-25T11:12:21;4.88;;;2.03;;
25023;SDS011;13033;50.936;5.334;2022-07-25T11:14:47;5.25;;;1.92;;
25023;SDS011;13033;50.936;5.334;2022-07-25T11:20:19;4.07;;;2.08;;
25023;SDS011;13033;50.936;5.334;2022-07-25T11:22:40;3.15;;;1.80;;
25023;SDS011;13033;50.936;5.334;2022-07-25T11:25:10;2.80;;;1.88;;
25023;SDS011;13033;50.936;5.334;2022-07-25T11:27:38;3.75;;;2.15;;
25023;SDS011;13033;50.936;5.334;2022-07-25T11:30:16;2.47;;;1.75;;
25023;SDS011;13033;50.936;5.334;2022-07-25T11:32:47;4.60;;;2.10;;
25023;SDS011;13033;50.936;5.334;2022-07-25T11:35:15;4.43;;;1.87;;
25023;SDS011;13033;50.936;5.334;2022-07-25T11:37:45;4.35;;;2.05;;
25023;SDS011;13033;50.936;5.334;2022-07-25T11:40:13;5.00;;;2.00;;
25023;SDS011;13033;50.936;5.334;2022-07-25T11:42:46;4.10;;;2.00;;
25023;SDS011;13033;50.936;5.334;2022-07-25T11:45:17;2.45;;;1.90;;
25023;SDS011;13033;50.936;5.334;2022-07-25T11:48:03;5.40;;;2.00;;
25023;SDS011;13033;50.936;5.334;2022-07-25T11:50:30;4.32;;;2.13;;
25023;SDS011;13033;50.936;5.334;2022-07-25T11:53:01;4.25;;;2.20;;
25023;SDS011;13033;50.936;5.334;2022-07-25T11:55:30;3.33;;;2.20;;
25023;SDS011;13033;50.936;5.334;2022-07-25T11:57:57;7.38;;;2.17;;
25023;SDS011;13033;50.936;5.334;2022-07-25T12:00:25;4.53;;;2.20;;
25023;SDS011;13033;50.936;5.334;2022-07-25T12:02:51;5.57;;;2.20;;
25023;SDS011;13033;50.936;5.334;2022-07-25T12:05:17;5.57;;;2.17;;
25023;SDS011;13033;50.936;5.334;2022-07-25T12:07:46;7.03;;;2.40;;
25023;SDS011;13033;50.936;5.334;2022-07-25T12:10:17;3.97;;;2.20;;
25023;SDS011;13033;50.936;5.334;2022-07-25T12:12:50;6.78;;;2.28;;
25023;SDS011;13033;50.936;5.334;2022-07-25T12:15:20;5.65;;;2.10;;
25023;SDS011;13033;50.936;5.334;2022-07-25T12:17:48;4.38;;;2.17;;
25023;SDS011;13033;50.936;5.334;2022-07-25T12:20:16;5.53;;;2.42;;
25023;SDS011;13033;50.936;5.334;2022-07-25T12:22:44;5.30;;;2.10;;
25023;SDS011;13033;50.936;5.334;2022-07-25T12:25:10;8.15;;;2.40;;
25023;SDS011;13033;50.936;5.334;2022-07-25T12:27:36;5.38;;;2.33;;
25023;SDS011;13033;50.936;5.334;2022-07-25T12:30:03;3.60;;;2.10;;
25023;SDS011;13033;50.936;5.334;2022-07-25T12:32:30;5.13;;;2.08;;
25023;SDS011;13033;50.936;5.334;2022-07-25T12:34:56;4.47;;;2.35;;
25023;SDS011;13033;50.936;5.334;2022-07-25T12:37:22;7.88;;;2.67;;
25023;SDS011;13033;50.936;5.334;2022-07-25T12:39:48;5.68;;;2.30;;
25023;SDS011;13033;50.936;5.334;2022-07-25T12:42:14;5.38;;;2.60;;
25023;SDS011;13033;50.936;5.334;2022-07-25T12:44:40;4.97;;;2.30;;
25023;SDS011;13033;50.936;5.334;2022-07-25T12:47:05;4.68;;;2.60;;
25023;SDS011;13033;50.936;5.334;2022-07-25T12:49:31;8.85;;;2.60;;
25023;SDS011;13033;50.936;5.334;2022-07-25T12:51:57;5.88;;;2.42;;
25023;SDS011;13033;50.936;5.334;2022-07-25T12:54:22;5.72;;;2.58;;
25023;SDS011;13033;50.936;5.334;2022-07-25T12:56:48;8.13;;;2.85;;
25023;SDS011;13033;50.936;5.334;2022-07-25T12:59:14;6.28;;;2.60;;
25023;SDS011;13033;50.936;5.334;2022-07-25T13:01:40;6.45;;;3.03;;
25023;SDS011;13033;50.936;5.334;2022-07-25T13:04:06;8.05;;;2.83;;
25023;SDS011;13033;50.936;5.334;2022-07-25T13:06:33;7.00;;;2.47;;
25023;SDS011;13033;50.936;5.334;2022-07-25T13:08:59;7.93;;;2.42;;
25023;SDS011;13033;50.936;5.334;2022-07-25T13:11:25;8.13;;;2.38;;
25023;SDS011;13033;50.936;5.334;2022-07-25T13:13:51;9.18;;;2.40;;
25023;SDS011;13033;50.936;5.334;2022-07-25T13:16:17;6.20;;;2.33;;
25023;SDS011;13033;50.936;5.334;2022-07-25T13:18:42;6.35;;;2.70;;
25023;SDS011;13033;50.936;5.334;2022-07-25T13:21:08;5.72;;;2.45;;
25023;SDS011;13033;50.936;5.334;2022-07-25T13:23:34;8.75;;;2.50;;
25023;SDS011;13033;50.936;5.334;2022-07-25T13:26:01;7.85;;;2.17;;
25023;SDS011;13033;50.936;5.334;2022-07-25T13:28:26;4.10;;;2.00;;
25023;SDS011;13033;50.936;5.334;2022-07-25T13:30:53;4.47;;;2.00;;
25023;SDS011;13033;50.936;5.334;2022-07-25T13:33:19;3.83;;;2.00;;
25023;SDS011;13033;50.936;5.334;2022-07-25T13:35:45;8.23;;;2.10;;
25023;SDS011;13033;50.936;5.334;2022-07-25T13:38:11;4.60;;;2.00;;
25023;SDS011;13033;50.936;5.334;2022-07-25T13:40:37;5.55;;;2.13;;
25023;SDS011;13033;50.936;5.334;2022-07-25T13:43:10;5.22;;;1.90;;
25023;SDS011;13033;50.936;5.334;2022-07-25T13:45:37;6.47;;;2.13;;
25023;SDS011;13033;50.936;5.334;2022-07-25T13:48:03;4.18;;;2.30;;
25023;SDS011;13033;50.936;5.334;2022-07-25T13:50:30;7.30;;;2.30;;
25023;SDS011;13033;50.936;5.334;2022-07-25T13:52:55;5.47;;;2.42;;
25023;SDS011;13033;50.936;5.334;2022-07-25T13:55:23;5.70;;;2.03;;
25023;SDS011;13033;50.936;5.334;2022-07-25T13:57:49;7.68;;;2.28;;
25023;SDS011;13033;50.936;5.334;2022-07-25T14:00:15;8.23;;;2.47;;
25023;SDS011;13033;50.936;5.334;2022-07-25T14:02:41;6.20;;;2.25;;
25023;SDS011;13033;50.936;5.334;2022-07-25T14:05:06;8.27;;;2.38;;
25023;SDS011;13033;50.936;5.334;2022-07-25T14:07:33;11.18;;;2.65;;
25023;SDS011;13033;50.936;5.334;2022-07-25T14:09:59;5.28;;;2.40;;
25023;SDS011;13033;50.936;5.334;2022-07-25T14:12:25;8.70;;;2.45;;
25023;SDS011;13033;50.936;5.334;2022-07-25T14:14:51;5.72;;;2.17;;
25023;SDS011;13033;50.936;5.334;2022-07-25T14:17:17;8.10;;;2.83;;
25023;SDS011;13033;50.936;5.334;2022-07-25T14:19:42;5.65;;;2.70;;
25023;SDS011;13033;50.936;5.334;2022-07-25T14:22:08;6.93;;;2.60;;
25023;SDS011;13033;50.936;5.334;2022-07-25T14:24:34;7.07;;;2.30;;
25023;SDS011;13033;50.936;5.334;2022-07-25T14:26:59;6.45;;;2.53;;
25023;SDS011;13033;50.936;5.334;2022-07-25T14:29:25;6.65;;;2.33;;
25023;SDS011;13033;50.936;5.334;2022-07-25T14:31:51;6.22;;;2.25;;
25023;SDS011;13033;50.936;5.334;2022-07-25T14:34:17;3.92;;;2.28;;
25023;SDS011;13033;50.936;5.334;2022-07-25T14:36:43;9.13;;;2.53;;
25023;SDS011;13033;50.936;5.334;2022-07-25T14:39:11;7.40;;;2.30;;
25023;SDS011;13033;50.936;5.334;2022-07-25T14:41:37;5.22;;;2.35;;
25023;SDS011;13033;50.936;5.334;2022-07-25T14:44:03;9.43;;;2.40;;
25023;SDS011;13033;50.936;5.334;2022-07-25T14:46:29;9.00;;;2.58;;
25023;SDS011;13033;50.936;5.334;2022-07-25T14:48:55;5.78;;;2.13;;
25023;SDS011;13033;50.936;5.334;2022-07-25T14:51:21;5.70;;;2.38;;
25023;SDS011;13033;50.936;5.334;2022-07-25T14:53:47;7.28;;;2.53;;
25023;SDS011;13033;50.936;5.334;2022-07-25T14:56:14;5.15;;;2.30;;
25023;SDS011;13033;50.936;5.334;2022-07-25T14:58:39;6.15;;;2.60;;